Time;durP1;ratioP1;P1;durP2;ratioP2;P2;SDS_P1;SDS_P2;PMS_P1;PMS_P2;Temp;Humidity;BMP_temperature;BMP_pressure;BME280_temperature;BME280_humidity;BME280_pressure;Samples;Min_cycle;Max_cycle;Signal;HPM_P1;HPM_P2
2022/12/25 00:00:24;;;;;;;189.80;44.33;;;4.70;99.90;;;;;;5033596;28;20321;-65
2022/12/25 00:02:50;;;;;;;163.38;45.25;;;5.00;99.90;;;;;;5036814;28;20039;-66
2022/12/25 00:05:16;;;;;;;162.60;41.97;;;4.60;99.90;;;;;;5036772;28;20041;-65
2022/12/25 00:07:41;;;;;;;166.18;45.30;;;4.60;99.90;;;;;;5036390;28;20052;-68
2022/12/25 00:10:08;;;;;;;175.98;46.60;;;4.70;99.90;;;;;;5069331;28;20052;-67
2022/12/25 00:12:34;;;;;;;170.02;44.30;;;5.40;99.90;;;;;;5036833;28;20048;-67
2022/12/25 00:15:00;;;;;;;179.02;47.58;;;4.60;99.90;;;;;;5034204;28;20450;-66
2022/12/25 00:17:26;;;;;;;182.43;49.13;;;4.80;99.90;;;;;;5019521;28;20083;-67
2022/12/25 00:19:52;;;;;;;191.02;51.35;;;4.60;99.90;;;;;;5067896;28;20091;-66
2022/12/25 00:22:17;;;;;;;190.68;53.20;;;5.10;99.90;;;;;;5018762;28;20124;-66
2022/12/25 00:24:43;;;;;;;161.88;47.60;;;5.40;99.90;;;;;;5037680;28;20044;-66
2022/12/25 00:27:09;;;;;;;160.45;44.92;;;5.10;99.90;;;;;;5035886;28;20051;-66
2022/12/25 00:29:34;;;;;;;157.68;46.55;;;5.60;99.90;;;;;;5033890;28;20033;-67
2022/12/25 00:32:00;;;;;;;188.27;49.33;;;4.60;99.90;;;;;;5000020;28;20813;-67
2022/12/25 00:34:26;;;;;;;144.23;41.45;;;5.70;99.90;;;;;;5035796;28;20056;-68
2022/12/25 00:36:52;;;;;;;147.30;42.63;;;5.40;99.90;;;;;;5037146;28;20044;-67
2022/12/25 00:39:18;;;;;;;192.95;48.90;;;5.50;99.90;;;;;;5035237;28;20681;-65
2022/12/25 00:44:30;;;;;;;166.80;43.42;;;5.90;99.90;;;;;;5035460;28;20044;-67
2022/12/25 00:46:56;;;;;;;157.80;44.30;;;5.00;99.90;;;;;;5032186;28;20037;-68
2022/12/25 00:49:22;;;;;;;192.50;49.15;;;5.20;99.90;;;;;;5036246;28;20124;-67
2022/12/25 00:51:50;;;;;;;168.27;43.75;;;4.70;99.90;;;;;;5036113;28;20029;-68
2022/12/25 00:54:15;;;;;;;164.77;46.75;;;4.70;99.90;;;;;;5000719;28;20045;-67
2022/12/25 00:56:41;;;;;;;144.15;42.55;;;5.30;99.90;;;;;;5037806;28;20062;-68
2022/12/25 00:59:07;;;;;;;161.93;42.80;;;5.20;99.90;;;;;;5019394;28;20036;-67
2022/12/25 01:01:33;;;;;;;172.10;46.70;;;5.10;99.90;;;;;;5034006;28;20064;-67
2022/12/25 01:03:59;;;;;;;163.57;45.75;;;5.10;99.90;;;;;;5033929;28;20445;-67
2022/12/25 01:06:25;;;;;;;162.95;44.83;;;4.70;99.90;;;;;;5037861;28;20032;-67
2022/12/25 01:11:36;;;;;;;164.48;44.72;;;5.30;99.90;;;;;;5067976;28;20498;-68
2022/12/25 01:14:01;;;;;;;212.45;51.08;;;5.70;99.90;;;;;;5037376;28;20442;-67
2022/12/25 01:16:27;;;;;;;160.27;44.42;;;5.20;99.90;;;;;;5034999;28;20291;-65
2022/12/25 01:18:53;;;;;;;206.93;48.88;;;5.10;99.90;;;;;;5032520;28;20130;-67
2022/12/25 01:21:20;;;;;;;206.25;48.75;;;4.70;99.90;;;;;;5035490;28;20422;-67
2022/12/25 01:23:47;;;;;;;176.35;45.63;;;4.50;99.90;;;;;;5066412;28;20952;-66
2022/12/25 01:26:14;;;;;;;185.10;47.70;;;5.40;99.90;;;;;;5034729;28;20352;-67
2022/12/25 01:28:41;;;;;;;216.38;55.70;;;5.60;99.90;;;;;;5036119;28;20072;-66
2022/12/25 01:31:13;;;;;;;190.43;49.88;;;4.60;99.90;;;;;;5036723;28;20415;-67
2022/12/25 01:33:41;;;;;;;197.73;49.92;;;4.80;99.90;;;;;;5065638;28;20087;-67
2022/12/25 01:36:17;;;;;;;223.18;56.95;;;5.50;99.90;;;;;;5034250;28;20053;-67
2022/12/25 01:38:43;;;;;;;194.05;51.85;;;5.40;99.90;;;;;;5036142;28;20433;-67
2022/12/25 01:41:10;;;;;;;176.77;48.63;;;4.40;99.90;;;;;;5017758;28;20049;-67
2022/12/25 01:43:57;;;;;;;208.75;53.70;;;5.40;99.90;;;;;;5035465;28;20501;-67
2022/12/25 01:46:23;;;;;;;191.13;50.92;;;4.30;99.90;;;;;;5046453;28;20550;-66
2022/12/25 01:48:50;;;;;;;186.68;51.05;;;5.30;99.90;;;;;;5017793;28;20688;-67
2022/12/25 01:51:29;;;;;;;158.82;45.90;;;4.40;99.90;;;;;;5032377;28;20056;-67
2022/12/25 01:53:58;;;;;;;174.50;46.80;;;4.90;99.90;;;;;;5016754;28;20049;-67
2022/12/25 01:56:26;;;;;;;177.60;46.60;;;4.80;99.90;;;;;;5035093;28;20429;-66
2022/12/25 01:58:53;;;;;;;209.80;55.47;;;5.10;99.90;;;;;;5035123;28;20202;-66
2022/12/25 02:01:18;;;;;;;165.23;45.58;;;5.30;99.90;;;;;;5035397;28;20044;-66
2022/12/25 02:03:44;;;;;;;243.55;58.00;;;4.50;99.90;;;;;;5015108;28;20059;-68
2022/12/25 02:06:10;;;;;;;179.18;47.45;;;4.40;99.90;;;;;;5014269;28;20037;-67
2022/12/25 02:08:36;;;;;;;201.68;50.17;;;5.40;99.90;;;;;;5067680;28;20040;-67
2022/12/25 02:11:02;;;;;;;231.23;56.30;;;5.20;99.90;;;;;;5034578;28;20041;-65
2022/12/25 02:13:29;;;;;;;204.10;49.85;;;5.60;99.90;;;;;;5034771;28;20053;-68
2022/12/25 02:16:21;;;;;;;195.10;50.22;;;4.70;99.90;;;;;;5035039;28;20055;-66
2022/12/25 02:18:59;;;;;;;172.43;49.28;;;5.10;99.90;;;;;;5065402;28;20402;-66
2022/12/25 02:21:46;;;;;;;195.02;52.88;;;5.10;99.90;;;;;;5049918;28;20045;-67
2022/12/25 02:24:22;;;;;;;194.77;53.17;;;5.40;99.90;;;;;;5035745;28;20132;-67
2022/12/25 02:26:50;;;;;;;189.25;52.30;;;4.70;99.90;;;;;;5048758;28;20514;-66
2022/12/25 02:29:38;;;;;;;193.60;51.13;;;5.60;99.90;;;;;;5018276;28;20188;-67
2022/12/25 02:32:14;;;;;;;167.00;48.33;;;5.00;99.90;;;;;;5034478;28;20079;-67
2022/12/25 02:35:25;;;;;;;190.05;51.58;;;5.00;99.90;;;;;;5033218;28;20227;-67
2022/12/25 02:38:26;;;;;;;157.88;46.30;;;5.00;99.90;;;;;;4974540;28;20065;-67
2022/12/25 02:40:57;;;;;;;181.00;51.83;;;5.30;99.90;;;;;;5007992;28;20146;-67
2022/12/25 03:06:41;;;;;;;143.07;44.88;;;5.20;99.90;;;;;;5036088;28;20182;-66
2022/12/25 03:12:21;;;;;;;155.85;46.13;;;5.50;99.90;;;;;;5037312;28;20084;-67
2022/12/25 03:17:33;;;;;;;150.25;47.35;;;6.20;99.90;;;;;;5038627;28;20132;-66
2022/12/25 03:28:14;;;;;;;138.85;43.25;;;6.10;99.90;;;;;;5035914;28;20045;-68
2022/12/25 03:31:11;;;;;;;138.98;45.33;;;6.10;99.90;;;;;;5020080;28;20045;-67
2022/12/25 04:37:56;;;;;;;110.38;45.30;;;6.80;99.90;;;;;;5034965;28;20057;-68
2022/12/25 04:40:21;;;;;;;103.57;42.45;;;6.80;99.90;;;;;;5036696;28;20527;-67
2022/12/25 04:42:50;;;;;;;116.00;42.95;;;7.00;99.90;;;;;;5019827;28;20184;-69
2022/12/25 04:45:15;;;;;;;107.93;42.25;;;7.40;99.90;;;;;;5048133;28;20133;-68
2022/12/25 04:47:41;;;;;;;124.10;46.05;;;6.20;99.90;;;;;;5016999;28;20202;-68
2022/12/25 04:50:07;;;;;;;116.18;45.28;;;7.20;99.90;;;;;;5036461;28;20127;-68
2022/12/25 04:52:38;;;;;;;104.47;42.45;;;6.20;99.90;;;;;;5035649;28;20044;-67
2022/12/25 04:55:05;;;;;;;99.32;41.17;;;6.20;99.90;;;;;;5034610;28;20048;-68
2022/12/25 04:57:32;;;;;;;119.20;43.22;;;6.80;99.90;;;;;;5035380;28;20048;-69
2022/12/25 04:59:57;;;;;;;111.78;42.08;;;6.50;99.90;;;;;;5033916;28;20324;-67
2022/12/25 05:02:23;;;;;;;120.57;42.20;;;6.50;99.90;;;;;;5032859;28;20097;-68
2022/12/25 05:04:49;;;;;;;107.47;38.88;;;6.30;99.90;;;;;;5018757;28;20667;-67
2022/12/25 05:07:14;;;;;;;127.00;45.40;;;6.70;99.90;;;;;;5036761;28;20033;-68
2022/12/25 05:09:40;;;;;;;138.48;45.35;;;7.40;99.90;;;;;;5017088;28;20045;-68
2022/12/25 05:12:09;;;;;;;141.70;48.53;;;6.80;99.90;;;;;;5018537;28;20363;-67
2022/12/25 05:14:35;;;;;;;118.60;42.10;;;7.10;99.90;;;;;;5036364;28;20040;-69
2022/12/25 05:17:01;;;;;;;150.85;50.95;;;7.40;99.90;;;;;;5063487;28;20525;-68
2022/12/25 05:19:27;;;;;;;158.50;51.22;;;7.10;99.90;;;;;;5036124;28;20033;-68
2022/12/25 05:21:53;;;;;;;143.52;49.45;;;6.50;99.90;;;;;;5035561;28;20079;-69
2022/12/25 05:24:19;;;;;;;148.60;48.60;;;7.40;99.90;;;;;;5016701;28;20052;-70
2022/12/25 05:26:45;;;;;;;155.40;53.25;;;7.20;99.90;;;;;;5017520;28;20091;-67
2022/12/25 05:29:11;;;;;;;161.00;54.13;;;6.80;99.90;;;;;;5034492;28;20449;-67
2022/12/25 05:31:36;;;;;;;163.63;55.75;;;6.90;99.90;;;;;;5016645;28;20051;-68
2022/12/25 05:34:02;;;;;;;148.25;51.53;;;6.90;99.90;;;;;;5033238;28;20045;-68
2022/12/25 05:36:28;;;;;;;138.27;49.17;;;7.40;99.90;;;;;;5035396;28;20053;-68
2022/12/25 05:38:54;;;;;;;171.90;54.08;;;7.40;99.90;;;;;;5034483;28;20047;-69
2022/12/25 05:41:19;;;;;;;169.55;52.03;;;7.20;99.90;;;;;;5033045;28;20049;-68
2022/12/25 05:43:45;;;;;;;178.55;54.30;;;7.30;99.90;;;;;;5018879;28;20072;-68
2022/12/25 05:46:12;;;;;;;165.50;51.67;;;6.80;99.90;;;;;;5034714;28;20041;-68
2022/12/25 05:48:38;;;;;;;193.43;53.13;;;6.90;99.90;;;;;;5030267;28;20037;-69
2022/12/25 05:51:09;;;;;;;165.30;51.10;;;7.30;99.90;;;;;;5034408;28;20041;-68
2022/12/25 05:53:35;;;;;;;180.93;55.00;;;7.90;99.90;;;;;;5050322;28;20310;-69
2022/12/25 05:56:03;;;;;;;184.98;54.88;;;7.10;99.90;;;;;;5032873;28;20067;-69
2022/12/25 05:58:30;;;;;;;197.40;55.75;;;7.90;99.90;;;;;;5036159;28;20119;-68
2022/12/25 06:00:56;;;;;;;201.40;56.42;;;7.90;99.90;;;;;;5034727;28;20595;-66
2022/12/25 06:03:22;;;;;;;220.05;58.95;;;7.20;99.90;;;;;;5031293;28;20099;-67
2022/12/25 06:05:48;;;;;;;201.88;57.45;;;7.20;99.90;;;;;;5033597;28;20410;-68
2022/12/25 06:08:13;;;;;;;215.82;58.65;;;7.30;99.90;;;;;;5034023;28;20332;-68
2022/12/25 06:10:39;;;;;;;219.57;57.38;;;7.20;99.90;;;;;;5033253;28;20044;-68
2022/12/25 06:13:05;;;;;;;214.38;56.88;;;7.40;99.90;;;;;;5033960;28;20423;-67
2022/12/25 06:15:31;;;;;;;210.95;56.38;;;8.00;99.90;;;;;;5034522;28;20426;-68
2022/12/25 06:18:01;;;;;;;197.20;53.13;;;7.80;99.90;;;;;;5035423;28;20041;-68
2022/12/25 06:20:27;;;;;;;241.82;61.28;;;7.40;99.90;;;;;;5030532;28;20560;-68
2022/12/25 06:22:53;;;;;;;234.05;57.17;;;7.20;99.90;;;;;;5034045;28;20041;-68
2022/12/25 06:25:18;;;;;;;217.45;54.28;;;7.30;99.90;;;;;;5034145;28;20152;-68
2022/12/25 06:27:44;;;;;;;170.70;47.13;;;7.40;99.90;;;;;;5034374;28;20029;-69
2022/12/25 06:30:10;;;;;;;254.93;59.95;;;7.50;99.90;;;;;;5022692;28;20044;-68
2022/12/25 06:32:36;;;;;;;279.05;59.25;;;8.10;99.90;;;;;;5038160;28;20334;-69
2022/12/25 06:35:02;;;;;;;265.85;62.88;;;7.80;99.90;;;;;;5035206;28;20036;-68
2022/12/25 06:37:27;;;;;;;318.48;68.97;;;7.50;99.90;;;;;;5037312;28;20499;-69
2022/12/25 06:39:53;;;;;;;301.33;64.95;;;8.10;99.90;;;;;;5021603;28;20120;-68
2022/12/25 06:42:19;;;;;;;265.33;59.92;;;8.00;99.90;;;;;;5003997;28;20789;-69
2022/12/25 06:44:44;;;;;;;261.63;60.83;;;7.50;99.90;;;;;;5039661;28;20094;-68
2022/12/25 06:47:10;;;;;;;240.73;56.55;;;8.30;99.90;;;;;;5021998;28;20045;-68
2022/12/25 06:49:36;;;;;;;235.60;58.20;;;7.50;99.90;;;;;;5067720;28;20049;-70
2022/12/25 06:52:02;;;;;;;201.52;52.60;;;7.70;99.90;;;;;;5035068;28;20557;-67
2022/12/25 06:54:27;;;;;;;263.85;60.65;;;8.00;99.90;;;;;;5020917;28;20053;-69
2022/12/25 06:56:53;;;;;;;218.45;55.90;;;8.10;99.90;;;;;;5037456;28;20072;-69
2022/12/25 06:59:19;;;;;;;215.85;59.38;;;8.20;99.90;;;;;;5037192;28;20044;-68
2022/12/25 07:01:57;;;;;;;181.48;50.00;;;8.20;99.90;;;;;;5038065;28;20116;-68
2022/12/25 07:04:30;;;;;;;230.43;57.63;;;7.50;99.90;;;;;;5037048;28;20075;-69
2022/12/25 07:06:57;;;;;;;195.77;53.08;;;8.30;99.90;;;;;;5033975;28;20455;-67
2022/12/25 07:09:23;;;;;;;153.10;46.53;;;7.50;99.90;;;;;;5037019;28;20048;-67
2022/12/25 07:11:49;;;;;;;236.73;60.40;;;7.70;99.90;;;;;;5004634;28;20041;-65
2022/12/25 07:14:20;;;;;;;184.18;53.45;;;7.70;99.90;;;;;;5020215;28;20498;-67
2022/12/25 07:16:46;;;;;;;188.10;54.20;;;8.50;99.90;;;;;;5021191;28;20092;-66
2022/12/25 07:19:12;;;;;;;175.82;52.72;;;8.10;99.90;;;;;;5038080;28;20244;-65
2022/12/25 07:21:38;;;;;;;168.07;51.60;;;8.30;99.90;;;;;;5067971;28;20107;-66
2022/12/25 07:24:04;;;;;;;184.27;53.83;;;7.70;99.90;;;;;;5035666;28;20869;-65
2022/12/25 07:26:29;;;;;;;176.55;52.05;;;8.20;99.90;;;;;;5039269;28;20765;-65
2022/12/25 07:28:55;;;;;;;172.13;49.78;;;7.60;99.90;;;;;;5037506;28;20106;-68
2022/12/25 07:31:21;;;;;;;175.60;51.53;;;8.10;99.90;;;;;;5020539;28;20136;-69
2022/12/25 07:33:47;;;;;;;190.73;55.67;;;8.00;99.90;;;;;;5038919;28;20048;-68
2022/12/25 07:36:14;;;;;;;191.75;53.20;;;8.20;99.90;;;;;;5037676;28;20051;-67
2022/12/25 07:38:46;;;;;;;197.32;52.47;;;8.40;99.90;;;;;;5017837;28;20541;-66
2022/12/25 07:41:12;;;;;;;229.88;59.55;;;8.20;99.90;;;;;;5037609;28;20241;-66
2022/12/25 07:43:38;;;;;;;236.95;60.42;;;7.90;99.90;;;;;;5003867;28;20298;-66
2022/12/25 07:46:04;;;;;;;214.02;56.83;;;7.90;99.90;;;;;;5037574;28;20126;-69
2022/12/25 07:48:30;;;;;;;195.65;57.72;;;8.60;99.90;;;;;;5021357;28;20130;-66
2022/12/25 07:51:08;;;;;;;184.10;53.40;;;7.70;99.90;;;;;;5038660;28;20493;-67
2022/12/25 07:53:35;;;;;;;186.23;53.65;;;8.40;99.90;;;;;;5036189;28;20080;-67
2022/12/25 07:56:07;;;;;;;201.40;58.17;;;8.40;99.90;;;;;;5035407;28;20048;-65
2022/12/25 07:58:33;;;;;;;151.48;52.30;;;7.80;99.90;;;;;;5036869;28;20164;-66
2022/12/25 08:01:08;;;;;;;140.25;48.05;;;8.40;99.90;;;;;;5019498;28;20407;-68
2022/12/25 08:03:35;;;;;;;139.38;48.25;;;7.90;99.90;;;;;;5069817;28;20996;-66
2022/12/25 08:06:02;;;;;;;128.48;46.53;;;7.90;99.90;;;;;;5021071;28;20118;-66
2022/12/25 08:08:28;;;;;;;134.68;49.42;;;7.90;99.90;;;;;;5035449;28;20124;-67
2022/12/25 08:10:54;;;;;;;116.15;45.92;;;8.70;99.90;;;;;;5035189;28;20056;-66
2022/12/25 08:13:20;;;;;;;119.28;47.50;;;8.80;99.90;;;;;;5038945;28;20040;-66
2022/12/25 08:15:45;;;;;;;105.20;44.47;;;8.00;99.90;;;;;;5037205;28;20092;-67
2022/12/25 08:18:11;;;;;;;114.78;45.03;;;8.00;99.90;;;;;;5037705;28;20154;-67
2022/12/25 08:20:37;;;;;;;103.93;41.35;;;8.00;99.90;;;;;;5037327;28;20041;-65
2022/12/25 08:23:03;;;;;;;107.57;43.03;;;8.90;99.90;;;;;;5035669;28;20045;-67
2022/12/25 08:25:29;;;;;;;109.07;44.78;;;9.00;99.90;;;;;;5036655;28;20068;-66
2022/12/25 08:27:55;;;;;;;111.63;47.05;;;8.00;99.90;;;;;;5040822;28;20049;-66
2022/12/25 08:30:21;;;;;;;120.93;49.53;;;9.10;99.90;;;;;;5037303;28;20778;-66
2022/12/25 08:32:47;;;;;;;111.03;45.25;;;9.10;99.90;;;;;;5036848;28;20506;-66
2022/12/25 08:35:12;;;;;;;101.85;40.45;;;9.20;99.90;;;;;;5037028;28;20403;-65
2022/12/25 08:37:38;;;;;;;116.53;47.88;;;8.70;99.90;;;;;;5019208;28;20107;-66
2022/12/25 08:40:05;;;;;;;104.05;46.75;;;9.10;99.90;;;;;;5003142;28;20045;-65
2022/12/25 08:42:30;;;;;;;114.43;47.35;;;9.00;99.90;;;;;;5067068;28;20159;-67
2022/12/25 08:44:56;;;;;;;97.22;42.17;;;9.00;99.90;;;;;;5037594;28;20055;-67
2022/12/25 08:47:22;;;;;;;105.03;45.65;;;8.40;99.90;;;;;;5037545;28;20479;-66
2022/12/25 08:49:47;;;;;;;91.43;41.92;;;8.10;99.90;;;;;;5035941;28;20398;-66
2022/12/25 08:52:14;;;;;;;107.00;44.55;;;9.00;99.90;;;;;;5037636;28;20041;-65
2022/12/25 08:54:39;;;;;;;90.05;42.47;;;8.60;99.90;;;;;;5016809;28;20485;-69
2022/12/25 08:57:05;;;;;;;98.45;42.58;;;8.10;99.90;;;;;;5034871;28;20204;-68
2022/12/25 08:59:31;;;;;;;93.28;41.20;;;9.00;99.90;;;;;;5000185;28;20112;-70
2022/12/25 09:01:56;;;;;;;89.65;38.53;;;9.10;99.90;;;;;;5065740;28;20549;-68
2022/12/25 09:04:22;;;;;;;84.20;37.17;;;8.10;99.90;;;;;;5036845;28;20063;-67
2022/12/25 09:06:49;;;;;;;80.88;37.15;;;8.40;99.90;;;;;;5019499;28;20048;-69
2022/12/25 09:09:14;;;;;;;80.82;38.65;;;8.30;99.90;;;;;;5017921;28;20044;-68
2022/12/25 09:11:40;;;;;;;70.53;36.88;;;8.40;99.90;;;;;;5019219;28;20048;-68
2022/12/25 09:14:06;;;;;;;78.30;37.65;;;8.10;99.90;;;;;;5018771;28;20187;-68
2022/12/25 09:16:31;;;;;;;68.25;34.58;;;8.70;99.90;;;;;;5029253;28;20072;-69
2022/12/25 09:18:57;;;;;;;75.72;35.08;;;8.10;99.90;;;;;;5037199;28;20045;-68
2022/12/25 09:21:23;;;;;;;67.82;35.17;;;8.90;99.90;;;;;;5018880;28;20356;-67
2022/12/25 09:23:49;;;;;;;59.33;33.30;;;9.10;99.90;;;;;;5035567;28;20100;-68
2022/12/25 09:26:17;;;;;;;59.55;32.72;;;9.00;99.90;;;;;;5018729;28;20045;-69
2022/12/25 09:28:43;;;;;;;56.95;33.20;;;8.00;99.90;;;;;;5035656;28;20152;-68
2022/12/25 09:31:09;;;;;;;66.70;34.70;;;8.70;99.90;;;;;;4999156;28;20713;-68
2022/12/25 09:33:34;;;;;;;59.75;34.10;;;9.10;99.90;;;;;;5034039;28;20589;-67
2022/12/25 09:36:03;;;;;;;51.33;29.80;;;8.40;99.90;;;;;;5018227;28;20049;-67
2022/12/25 09:38:29;;;;;;;53.38;29.75;;;8.10;99.90;;;;;;5036645;28;20191;-69
2022/12/25 09:41:29;;;;;;;49.05;27.52;;;9.00;99.90;;;;;;5034171;28;20395;-69
2022/12/25 09:44:12;;;;;;;51.60;29.33;;;8.60;99.90;;;;;;4968505;28;20131;-69
2022/12/25 09:46:41;;;;;;;42.33;26.38;;;8.60;99.90;;;;;;5033333;28;20056;-68
2022/12/25 09:49:25;;;;;;;47.20;27.77;;;8.20;99.90;;;;;;5027586;28;20112;-66
2022/12/25 09:51:57;;;;;;;42.97;25.48;;;8.20;99.90;;;;;;5036547;28;20036;-66
2022/12/25 09:54:45;;;;;;;41.15;23.38;;;8.80;99.90;;;;;;5065678;28;20071;-67
2022/12/25 09:57:12;;;;;;;40.83;22.92;;;8.70;99.90;;;;;;5032491;28;20040;-67
2022/12/25 09:59:39;;;;;;;44.50;23.33;;;9.30;99.90;;;;;;5033211;28;20041;-68
2022/12/25 10:02:33;;;;;;;35.20;19.95;;;9.40;99.90;;;;;;5030641;28;20045;-67
2022/12/25 10:05:06;;;;;;;34.53;18.10;;;9.20;99.90;;;;;;5032143;28;20270;-66
2022/12/25 10:07:42;;;;;;;29.90;17.50;;;8.70;99.90;;;;;;5033753;28;20044;-66
2022/12/25 10:10:32;;;;;;;31.75;16.65;;;9.30;99.90;;;;;;5035374;28;20795;-65
2022/12/25 10:13:30;;;;;;;28.58;14.73;;;9.20;99.90;;;;;;5065587;28;20506;-66
2022/12/25 10:16:47;;;;;;;27.63;15.93;;;9.10;99.90;;;;;;5019874;28;20075;-66
2022/12/25 10:19:39;;;;;;;28.92;16.05;;;9.20;99.90;;;;;;5000583;28;20052;-67
2022/12/25 10:22:25;;;;;;;27.77;14.35;;;8.50;99.90;;;;;;5035204;28;20175;-65
2022/12/25 10:24:56;;;;;;;30.38;15.77;;;8.90;99.90;;;;;;5043870;28;20053;-66
2022/12/25 10:27:30;;;;;;;27.98;14.02;;;9.30;99.90;;;;;;5015888;28;20075;-65
2022/12/25 10:29:57;;;;;;;26.08;15.00;;;8.50;99.90;;;;;;5033700;28;20140;-66
2022/12/25 10:32:23;;;;;;;28.70;13.95;;;8.40;99.90;;;;;;5034157;28;20040;-66
2022/12/25 10:34:49;;;;;;;23.55;13.88;;;9.20;99.90;;;;;;5031418;28;20532;-67
2022/12/25 10:37:16;;;;;;;31.02;16.25;;;9.10;99.90;;;;;;5033386;28;20036;-66
2022/12/25 10:39:43;;;;;;;30.08;16.70;;;8.40;99.90;;;;;;5034766;28;20037;-66
2022/12/25 10:42:24;;;;;;;30.25;16.75;;;9.30;99.90;;;;;;5033128;28;20033;-65
2022/12/25 10:45:00;;;;;;;31.45;18.40;;;9.30;99.90;;;;;;5033031;28;20074;-66
2022/12/25 10:47:32;;;;;;;29.05;16.60;;;9.40;99.90;;;;;;5048901;28;20573;-67
2022/12/25 10:50:00;;;;;;;31.95;18.27;;;8.90;99.90;;;;;;5029441;28;20144;-66
2022/12/25 10:52:27;;;;;;;32.53;19.55;;;8.50;99.90;;;;;;5033075;28;20045;-67
2022/12/25 10:54:54;;;;;;;26.38;15.85;;;9.30;99.90;;;;;;5032937;28;20112;-66
2022/12/25 10:57:22;;;;;;;24.42;15.00;;;9.40;99.90;;;;;;5033945;28;20041;-66
2022/12/25 10:59:51;;;;;;;26.00;13.88;;;9.30;99.90;;;;;;5033933;28;20120;-67
2022/12/25 11:02:27;;;;;;;24.45;14.00;;;8.60;99.90;;;;;;5035794;28;20072;-67
2022/12/25 11:05:02;;;;;;;25.77;14.82;;;9.20;99.90;;;;;;5032137;28;20048;-66
2022/12/25 11:07:29;;;;;;;25.42;14.10;;;9.30;99.90;;;;;;5047114;28;20041;-65
2022/12/25 11:10:14;;;;;;;19.67;12.82;;;8.70;99.90;;;;;;5033173;28;20160;-66
2022/12/25 11:12:43;;;;;;;24.27;13.93;;;8.70;99.90;;;;;;5035047;28;20061;-66
2022/12/25 11:15:28;;;;;;;24.20;13.45;;;8.90;99.90;;;;;;5036316;28;20120;-66
2022/12/25 11:17:53;;;;;;;20.40;11.48;;;9.20;99.90;;;;;;5037897;28;20037;-66
2022/12/25 11:20:20;;;;;;;20.30;10.68;;;9.70;99.90;;;;;;5036570;28;20072;-66
2022/12/25 11:22:48;;;;;;;23.50;10.30;;;9.50;99.90;;;;;;5036378;28;20439;-65
2022/12/25 11:25:22;;;;;;;12.93;8.82;;;9.70;99.90;;;;;;5038835;28;20102;-66
2022/12/25 11:28:03;;;;;;;18.33;9.73;;;9.30;99.90;;;;;;5035551;28;20049;-66
2022/12/25 11:30:31;;;;;;;17.88;9.23;;;9.70;99.90;;;;;;5036773;28;20313;-66
2022/12/25 11:33:11;;;;;;;18.77;8.50;;;9.10;99.90;;;;;;5036772;28;20047;-66
2022/12/25 11:35:46;;;;;;;17.02;9.45;;;9.10;99.90;;;;;;5009823;28;20071;-67
2022/12/25 11:38:12;;;;;;;16.13;8.85;;;9.30;99.90;;;;;;5032784;28;20045;-66
2022/12/25 11:40:43;;;;;;;18.38;9.85;;;9.70;99.90;;;;;;5021701;28;20219;-66
2022/12/25 11:43:19;;;;;;;16.50;9.07;;;9.20;99.90;;;;;;5038825;28;20049;-66
2022/12/25 11:45:50;;;;;;;16.73;8.60;;;9.80;99.90;;;;;;5039354;28;20040;-66
2022/12/25 11:48:30;;;;;;;12.75;7.28;;;9.40;99.90;;;;;;5040293;28;20048;-66
2022/12/25 11:51:00;;;;;;;17.77;8.50;;;9.90;99.90;;;;;;5054879;28;20355;-65
2022/12/25 11:53:41;;;;;;;18.80;10.52;;;9.30;99.90;;;;;;5034903;28;20091;-67
2022/12/25 11:56:23;;;;;;;21.30;11.52;;;10.00;99.90;;;;;;5039258;28;20040;-66
2022/12/25 11:59:02;;;;;;;21.17;13.00;;;9.90;99.90;;;;;;5036959;28;20044;-66
2022/12/25 12:01:36;;;;;;;23.80;12.93;;;9.30;99.90;;;;;;5035892;28;20049;-65
2022/12/25 12:04:11;;;;;;;19.58;14.00;;;9.30;99.90;;;;;;5038844;28;20045;-66
2022/12/25 12:07:02;;;;;;;23.17;14.32;;;9.20;99.90;;;;;;5071117;28;20418;-67
2022/12/25 12:09:31;;;;;;;20.98;12.82;;;9.30;99.90;;;;;;5036524;28;20554;-67
2022/12/25 12:12:31;;;;;;;24.20;13.68;;;9.90;99.90;;;;;;5038799;28;20045;-69
2022/12/25 12:15:10;;;;;;;24.60;14.20;;;9.10;99.90;;;;;;5017041;28;20044;-68
2022/12/25 12:17:35;;;;;;;18.38;12.73;;;9.30;99.90;;;;;;5019896;28;20040;-69
2022/12/25 12:20:25;;;;;;;23.92;12.63;;;9.10;99.90;;;;;;5037087;28;20218;-68
2022/12/25 12:22:51;;;;;;;21.15;13.50;;;9.10;99.90;;;;;;5035593;28;20132;-69
2022/12/25 12:25:18;;;;;;;23.27;14.05;;;9.70;99.90;;;;;;5000886;28;20177;-68
2022/12/25 12:27:44;;;;;;;24.70;13.80;;;9.70;99.90;;;;;;5036839;28;20045;-70
2022/12/25 12:30:27;;;;;;;23.77;14.50;;;9.50;99.90;;;;;;5019238;28;20102;-69
2022/12/25 12:32:57;;;;;;;27.80;15.10;;;9.00;99.90;;;;;;5038229;28;20049;-69
2022/12/25 12:35:37;;;;;;;21.40;13.65;;;9.10;99.90;;;;;;5036297;28;20296;-69
2022/12/25 12:38:17;;;;;;;24.73;13.98;;;9.60;99.90;;;;;;5067374;28;20400;-68
2022/12/25 12:40:54;;;;;;;21.15;13.80;;;8.90;99.90;;;;;;5034837;28;20119;-68
2022/12/25 12:43:39;;;;;;;26.58;16.65;;;9.60;99.90;;;;;;5020082;28;20330;-69
2022/12/25 12:46:22;;;;;;;23.42;14.85;;;9.50;99.90;;;;;;5035959;28;20534;-69
2022/12/25 12:48:53;;;;;;;21.60;12.38;;;9.60;99.90;;;;;;5036494;28;20075;-69
2022/12/25 12:51:34;;;;;;;24.35;14.52;;;9.50;99.90;;;;;;5037136;28;20049;-68
2022/12/25 12:54:16;;;;;;;22.02;14.77;;;9.60;99.90;;;;;;5021922;28;20080;-68
2022/12/25 12:57:04;;;;;;;22.48;14.75;;;9.70;99.90;;;;;;5033800;28;20538;-68
2022/12/25 12:59:43;;;;;;;25.35;14.82;;;9.60;99.90;;;;;;5036224;28;20214;-69
2022/12/25 13:02:29;;;;;;;22.15;14.63;;;9.40;99.90;;;;;;5018895;28;20423;-69
2022/12/25 13:05:04;;;;;;;24.13;14.35;;;9.40;99.90;;;;;;5068011;28;20452;-69
2022/12/25 13:08:07;;;;;;;19.58;13.90;;;9.20;99.90;;;;;;5035746;28;20542;-70
2022/12/25 13:11:11;;;;;;;26.05;15.65;;;9.80;99.90;;;;;;5018517;28;20107;-68
2022/12/25 13:13:41;;;;;;;27.88;15.50;;;9.00;99.90;;;;;;5024559;28;20209;-68
2022/12/25 13:16:32;;;;;;;21.02;15.18;;;9.00;99.90;;;;;;5035958;28;20052;-67
2022/12/25 13:19:03;;;;;;;22.67;14.95;;;9.00;99.90;;;;;;5034639;28;20044;-67
2022/12/25 13:21:29;;;;;;;20.10;15.88;;;9.00;99.90;;;;;;5037343;28;20414;-68
2022/12/25 13:23:59;;;;;;;22.00;15.27;;;9.70;99.90;;;;;;5035247;28;20472;-67
2022/12/25 13:26:25;;;;;;;25.48;13.63;;;9.10;99.90;;;;;;5036029;28;20052;-67
2022/12/25 13:28:51;;;;;;;22.30;13.90;;;9.00;99.90;;;;;;5034845;28;20040;-67
2022/12/25 13:31:25;;;;;;;23.10;14.40;;;9.70;99.90;;;;;;5035937;28;20495;-66
2022/12/25 13:33:57;;;;;;;27.98;16.40;;;9.80;99.90;;;;;;5034337;28;20080;-66
2022/12/25 13:36:23;;;;;;;21.73;14.82;;;9.10;99.90;;;;;;5034720;28;20049;-67
2022/12/25 13:38:51;;;;;;;22.25;15.25;;;9.80;99.90;;;;;;5018216;28;20044;-67
2022/12/25 13:44:29;;;;;;;21.02;14.73;;;9.10;99.90;;;;;;5034297;28;20040;-67
2022/12/25 13:46:55;;;;;;;26.38;15.15;;;9.90;99.90;;;;;;5035359;28;20053;-68
2022/12/25 13:49:23;;;;;;;22.17;14.90;;;9.00;99.90;;;;;;5017171;28;20045;-65
2022/12/25 13:51:50;;;;;;;25.55;16.13;;;9.00;99.90;;;;;;5001442;28;20040;-66
2022/12/25 13:54:17;;;;;;;27.95;15.95;;;9.00;99.90;;;;;;5036920;28;20190;-65
2022/12/25 13:56:48;;;;;;;27.10;16.85;;;9.30;99.90;;;;;;5035173;28;20041;-67
2022/12/25 13:59:23;;;;;;;26.05;16.13;;;9.70;99.90;;;;;;5033257;28;20109;-66
2022/12/25 14:01:50;;;;;;;25.88;17.15;;;9.10;99.90;;;;;;5035390;28;20073;-66
2022/12/25 14:04:21;;;;;;;24.17;17.05;;;9.00;99.90;;;;;;5011316;28;20099;-66
2022/12/25 14:06:48;;;;;;;25.58;16.58;;;9.70;99.90;;;;;;5036395;28;20410;-68
2022/12/25 14:09:14;;;;;;;27.95;16.98;;;9.10;99.90;;;;;;5034323;28;20048;-69
2022/12/25 14:11:44;;;;;;;30.83;18.50;;;9.70;99.90;;;;;;5032793;28;20041;-67
2022/12/25 14:14:23;;;;;;;27.60;16.75;;;8.90;99.90;;;;;;5035004;28;20139;-69
2022/12/25 14:16:52;;;;;;;30.02;17.65;;;9.00;99.90;;;;;;5035743;28;20534;-68
2022/12/25 14:19:23;;;;;;;27.42;16.92;;;8.90;99.90;;;;;;5048993;28;20044;-68
2022/12/25 14:21:57;;;;;;;26.92;17.33;;;9.70;99.90;;;;;;5034899;28;20053;-69
2022/12/25 14:24:25;;;;;;;21.50;15.57;;;8.90;99.90;;;;;;5034599;28;20112;-69
2022/12/25 14:27:14;;;;;;;24.52;17.38;;;8.90;99.90;;;;;;5015155;28;20876;-68
2022/12/25 14:29:43;;;;;;;25.38;16.83;;;8.90;99.90;;;;;;5036772;28;20640;-68
2022/12/25 14:32:20;;;;;;;24.67;16.58;;;9.60;99.90;;;;;;5032431;28;20077;-69
2022/12/25 14:34:51;;;;;;;30.77;17.17;;;9.30;99.90;;;;;;5033927;28;20056;-69
2022/12/25 14:37:20;;;;;;;27.00;16.98;;;9.00;99.90;;;;;;5036150;28;20545;-68